Time;durP1;ratioP1;P1;durP2;ratioP2;P2;SDS_P1;SDS_P2;PMS_P1;PMS_P2;Temp;Humidity;BMP_temperature;BMP_pressure;BME280_temperature;BME280_humidity;BME280_pressure;Samples;Min_cycle;Max_cycle;Signal;HPM_P1;HPM_P2
2023/06/29 09:07:42;;;;;;;8.45;5.25;;;;;;;;;;6132984;23;20018;-91
2023/06/29 09:10:11;;;;;;;7.07;5.18;;;;;;;;;;6128634;23;20014;-89
2023/06/29 09:12:37;;;;;;;4.97;4.50;;;;;;;;;;6102287;23;20012;-86
2023/06/29 09:15:11;;;;;;;7.57;5.25;;;;;;;;;;6128050;23;20077;-85
2023/06/29 09:17:37;;;;;;;5.75;5.07;;;;;;;;;;6125728;23;20424;-85
2023/06/29 09:20:15;;;;;;;7.35;5.18;;;;;;;;;;6128089;23;20009;-86
2023/06/29 09:22:40;;;;;;;7.32;5.65;;;;;;;;;;6128155;23;20009;-86
2023/06/29 09:25:07;;;;;;;8.25;5.22;;;;;;;;;;6127892;23;20073;-86
2023/06/29 09:27:36;;;;;;;7.55;5.30;;;;;;;;;;6127881;23;20033;-85
2023/06/29 09:30:04;;;;;;;5.30;4.80;;;;;;;;;;6128072;23;20006;-89
2023/06/29 09:32:30;;;;;;;27.00;7.30;;;;;;;;;;6127444;23;20002;-92
2023/06/29 09:35:03;;;;;;;8.10;5.40;;;;;;;;;;6104321;23;20006;-94
2023/06/29 09:37:29;;;;;;;7.20;5.05;;;;;;;;;;6103984;23;20010;-90
2023/06/29 09:40:06;;;;;;;5.20;4.35;;;;;;;;;;6128308;23;20008;-90
2023/06/29 09:42:37;;;;;;;4.47;3.53;;;;;;;;;;6129439;23;20009;-91
2023/06/29 09:45:11;;;;;;;4.47;4.05;;;;;;;;;;6130231;23;20676;-91
2023/06/29 09:47:41;;;;;;;3.97;3.47;;;;;;;;;;6130214;23;20013;-88
2023/06/29 09:50:20;;;;;;;5.82;3.08;;;;;;;;;;6129008;23;20029;-85
2023/06/29 09:52:47;;;;;;;;;;;;;;;;;;6129042;23;20002;-89
2023/06/29 09:55:13;;;;;;;5.22;2.63;;;;;;;;;;6128525;23;19909;-86
2023/06/29 09:57:43;;;;;;;4.28;2.90;;;;;;;;;;6128874;23;20006;-89
2023/06/29 10:00:12;;;;;;;4.32;2.45;;;;;;;;;;6102510;23;20010;-86
2023/06/29 10:02:40;;;;;;;2.90;2.60;;;;;;;;;;6128625;23;20527;-88
2023/06/29 10:05:07;;;;;;;2.90;2.50;;;;;;;;;;6128126;23;20009;-89
2023/06/29 10:07:33;;;;;;;3.83;2.58;;;;;;;;;;6128916;23;20042;-87
2023/06/29 10:09:59;;;;;;;2.83;2.35;;;;;;;;;;6131028;23;20021;-94
2023/06/29 10:12:27;;;;;;;2.35;2.10;;;;;;;;;;6128827;23;20013;-89
2023/06/29 10:14:57;;;;;;;2.30;2.10;;;;;;;;;;6128974;23;20006;-88
2023/06/29 10:17:35;;;;;;;3.63;2.40;;;;;;;;;;6132091;23;20081;-92
2023/06/29 10:20:03;;;;;;;2.63;2.42;;;;;;;;;;6128191;23;20326;-86
2023/06/29 10:22:30;;;;;;;2.50;2.30;;;;;;;;;;6127485;23;20032;-91
2023/06/29 10:24:59;;;;;;;2.65;2.45;;;;;;;;;;6127777;23;20006;-84
2023/06/29 10:27:27;;;;;;;2.55;2.13;;;;;;;;;;6127353;23;20002;-85
2023/06/29 10:29:53;;;;;;;2.83;2.30;;;;;;;;;;6127422;23;20009;-85
2023/06/29 10:32:29;;;;;;;3.47;2.33;;;;;;;;;;6101101;23;20009;-84
2023/06/29 10:35:02;;;;;;;3.92;2.30;;;;;;;;;;6127335;23;20006;-88
2023/06/29 10:37:32;;;;;;;3.65;2.30;;;;;;;;;;6127172;23;20334;-87
2023/06/29 10:39:58;;;;;;;2.63;2.42;;;;;;;;;;6127594;23;20010;-87
2023/06/29 10:42:23;;;;;;;2.42;2.00;;;;;;;;;;6101270;23;20033;-88
2023/06/29 10:44:49;;;;;;;2.45;2.20;;;;;;;;;;6127162;23;20006;-86
2023/06/29 10:47:28;;;;;;;2.40;2.20;;;;;;;;;;6127262;23;20052;-86
2023/06/29 10:50:11;;;;;;;4.35;2.22;;;;;;;;;;6127638;23;20010;-86
2023/06/29 10:52:38;;;;;;;2.40;2.20;;;;;;;;;;6127110;23;20002;-86
2023/06/29 10:55:23;;;;;;;4.97;2.20;;;;;;;;;;6127179;23;20034;-86
2023/06/29 10:57:54;;;;;;;5.47;2.78;;;;;;;;;;6127314;23;20365;-87
2023/06/29 11:00:21;;;;;;;2.83;2.55;;;;;;;;;;6127499;23;20002;-86
2023/06/29 11:02:49;;;;;;;4.05;1.80;;;;;;;;;;6127003;23;20493;-87
2023/06/29 11:05:20;;;;;;;3.15;2.00;;;;;;;;;;6127224;23;20006;-85
2023/06/29 11:07:48;;;;;;;3.42;2.33;;;;;;;;;;6126713;23;20156;-85
2023/06/29 11:10:14;;;;;;;1.80;1.70;;;;;;;;;;6127025;23;20006;-85
2023/06/29 11:12:40;;;;;;;2.50;2.20;;;;;;;;;;6126921;23;20026;-86
2023/06/29 11:15:14;;;;;;;2.35;1.90;;;;;;;;;;6127116;23;20081;-86
2023/06/29 11:17:41;;;;;;;3.92;1.92;;;;;;;;;;6126899;23;20006;-86
2023/06/29 11:20:10;;;;;;;2.88;1.83;;;;;;;;;;6127131;23;20321;-85
2023/06/29 11:22:36;;;;;;;3.53;2.55;;;;;;;;;;6126657;23;20382;-83
2023/06/29 11:25:02;;;;;;;4.40;2.10;;;;;;;;;;6127238;23;20006;-84
2023/06/29 11:27:28;;;;;;;2.40;2.20;;;;;;;;;;6126805;23;20365;-86
2023/06/29 11:29:54;;;;;;;2.22;1.90;;;;;;;;;;6126981;23;20002;-86
2023/06/29 11:32:20;;;;;;;3.47;1.98;;;;;;;;;;6127006;23;20362;-87
2023/06/29 11:34:45;;;;;;;2.70;1.92;;;;;;;;;;6127202;23;20006;-91
2023/06/29 11:37:11;;;;;;;2.47;2.28;;;;;;;;;;6126983;23;20008;-90
2023/06/29 11:39:36;;;;;;;2.75;2.22;;;;;;;;;;6126710;23;20009;-91
2023/06/29 11:42:09;;;;;;;3.88;2.17;;;;;;;;;;6126715;23;20002;-81
2023/06/29 11:44:34;;;;;;;2.88;2.35;;;;;;;;;;6128810;23;20006;-81
2023/06/29 17:26:34;;;;;;;5.32;3.35;;;;;;;;;;6096756;23;20064;-89
2023/06/29 17:28:59;;;;;;;4.05;3.40;;;;;;;;;;6128251;23;20096;-90
2023/06/29 17:31:25;;;;;;;4.18;3.00;;;;;;;;;;6128500;23;20010;-87
2023/06/29 17:33:51;;;;;;;4.25;3.50;;;;;;;;;;6108457;23;20077;-91
2023/06/29 17:36:16;;;;;;;3.58;3.28;;;;;;;;;;6098643;23;20009;-89
2023/06/29 17:38:42;;;;;;;4.00;3.60;;;;;;;;;;6099922;23;20002;-88
2023/06/29 17:41:07;;;;;;;5.63;3.45;;;;;;;;;;6098748;23;20009;-90
2023/06/29 17:43:33;;;;;;;3.75;3.17;;;;;;;;;;6098604;23;20033;-85
2023/06/29 17:45:58;;;;;;;9.45;4.60;;;;;;;;;;6072944;23;20099;-84
2023/06/29 17:48:23;;;;;;;4.55;3.88;;;;;;;;;;6098292;23;20058;-81
2023/06/29 17:50:51;;;;;;;4.95;3.60;;;;;;;;;;6098832;23;20355;-85
2023/06/29 17:53:17;;;;;;;4.05;3.65;;;;;;;;;;6098111;23;20022;-89
2023/06/29 17:55:42;;;;;;;4.78;3.85;;;;;;;;;;6098476;23;19999;-85
2023/06/29 17:58:08;;;;;;;4.78;3.35;;;;;;;;;;6098264;23;20010;-85
2023/06/29 18:00:33;;;;;;;3.95;3.25;;;;;;;;;;6098510;23;20073;-87
2023/06/29 18:02:59;;;;;;;5.20;3.90;;;;;;;;;;6098008;23;20009;-86
2023/06/29 18:05:24;;;;;;;4.20;3.75;;;;;;;;;;6098157;23;20478;-86
2023/06/29 18:07:50;;;;;;;3.90;3.60;;;;;;;;;;6098279;23;20010;-86
2023/06/29 18:10:15;;;;;;;3.78;3.47;;;;;;;;;;6098494;23;20045;-88
2023/06/29 18:12:40;;;;;;;5.00;4.20;;;;;;;;;;6098314;23;20013;-89
2023/06/29 18:15:07;;;;;;;4.68;3.72;;;;;;;;;;6098448;23;20002;-89
2023/06/29 18:17:33;;;;;;;4.65;3.40;;;;;;;;;;6098584;23;20018;-88
2023/06/29 18:19:59;;;;;;;4.15;3.72;;;;;;;;;;6098100;23;20014;-88
2023/06/29 18:22:25;;;;;;;3.60;3.30;;;;;;;;;;6097882;23;19999;-88
2023/06/29 18:24:50;;;;;;;4.05;3.70;;;;;;;;;;6098180;23;20045;-90
2023/06/29 18:27:16;;;;;;;4.35;3.95;;;;;;;;;;6072474;23;20022;-87
2023/06/29 18:29:41;;;;;;;4.00;3.60;;;;;;;;;;6097971;23;20006;-87
2023/06/29 18:32:07;;;;;;;4.20;3.67;;;;;;;;;;6098042;23;20126;-86
2023/06/29 18:34:33;;;;;;;4.45;4.00;;;;;;;;;;6098066;23;20010;-87
2023/06/29 18:36:58;;;;;;;4.63;4.18;;;;;;;;;;6098180;23;20054;-84
2023/06/29 18:39:23;;;;;;;4.13;3.72;;;;;;;;;;6097828;23;20014;-88
2023/06/29 18:41:49;;;;;;;3.80;3.50;;;;;;;;;;6098027;23;20089;-86
2023/06/29 18:44:14;;;;;;;3.88;3.47;;;;;;;;;;6097942;23;20002;-87
2023/06/29 18:47:00;;;;;;;4.05;3.45;;;;;;;;;;6097772;23;20179;-86
2023/06/29 18:49:26;;;;;;;3.65;3.35;;;;;;;;;;6097519;23;20330;-88
2023/06/29 18:51:51;;;;;;;4.03;3.72;;;;;;;;;;6098290;23;20086;-86
2023/06/29 18:54:17;;;;;;;5.65;3.38;;;;;;;;;;6098233;23;20323;-85
2023/06/29 18:56:42;;;;;;;3.83;3.33;;;;;;;;;;6097971;23;20007;-87
2023/06/29 18:59:11;;;;;;;4.45;3.60;;;;;;;;;;6097892;23;20006;-86
2023/06/29 19:01:37;;;;;;;5.03;4.13;;;;;;;;;;6098150;23;20422;-87
2023/06/29 19:04:02;;;;;;;4.53;4.13;;;;;;;;;;6097689;23;20129;-85
2023/06/29 19:06:28;;;;;;;4.75;4.25;;;;;;;;;;6097449;23;20007;-88
2023/06/29 19:08:54;;;;;;;5.05;4.03;;;;;;;;;;6097733;23;20038;-86
2023/06/29 19:11:19;;;;;;;5.43;4.30;;;;;;;;;;6097720;23;20010;-87
2023/06/29 19:13:45;;;;;;;4.95;4.45;;;;;;;;;;6097714;23;20002;-87
2023/06/29 19:16:10;;;;;;;4.05;3.65;;;;;;;;;;6098390;23;20077;-86
2023/06/29 19:18:36;;;;;;;3.70;3.35;;;;;;;;;;6098596;23;20085;-86
2023/06/29 19:21:01;;;;;;;3.30;3.00;;;;;;;;;;6098326;23;20006;-87
2023/06/29 19:23:27;;;;;;;4.45;3.05;;;;;;;;;;6098125;23;20030;-87
2023/06/29 19:25:52;;;;;;;4.00;3.58;;;;;;;;;;6098590;23;20407;-88
2023/06/29 19:28:18;;;;;;;4.68;3.35;;;;;;;;;;6098811;23;20337;-88
2023/06/29 19:30:44;;;;;;;3.80;3.38;;;;;;;;;;6098436;23;20014;-87
2023/06/29 19:33:10;;;;;;;5.68;4.00;;;;;;;;;;6097945;23;20062;-86
2023/06/29 19:35:35;;;;;;;4.40;3.35;;;;;;;;;;6098041;23;20009;-86
2023/06/29 19:38:01;;;;;;;3.88;3.53;;;;;;;;;;6098276;23;20016;-87
2023/06/29 19:40:26;;;;;;;3.80;3.50;;;;;;;;;;6098001;23;20026;-87
2023/06/29 19:42:52;;;;;;;4.63;3.47;;;;;;;;;;6098122;23;20062;-88
2023/06/29 19:45:17;;;;;;;3.90;3.50;;;;;;;;;;6097817;23;20026;-86
2023/06/29 19:47:42;;;;;;;4.43;3.80;;;;;;;;;;6097872;23;20017;-84
2023/06/29 19:50:08;;;;;;;3.42;3.13;;;;;;;;;;6097987;23;20007;-86
2023/06/29 19:52:34;;;;;;;4.70;3.30;;;;;;;;;;6097895;23;20319;-82
2023/06/29 19:54:59;;;;;;;5.82;3.65;;;;;;;;;;6097577;23;20441;-86
2023/06/29 19:57:24;;;;;;;4.00;3.65;;;;;;;;;;6103822;23;20081;-87
2023/06/29 19:59:50;;;;;;;4.00;3.67;;;;;;;;;;6098509;23;20002;-84
2023/06/29 20:02:15;;;;;;;3.70;3.40;;;;;;;;;;6098322;23;20034;-86
2023/06/29 20:04:41;;;;;;;3.95;3.53;;;;;;;;;;6097963;23;20009;-85
2023/06/29 20:07:06;;;;;;;4.97;3.28;;;;;;;;;;6097878;23;20007;-87
2023/06/29 20:09:32;;;;;;;5.30;3.65;;;;;;;;;;6097858;23;20125;-83
2023/06/29 20:11:57;;;;;;;5.05;3.90;;;;;;;;;;6097816;23;19998;-87
2023/06/29 20:14:22;;;;;;;4.40;3.50;;;;;;;;;;6097904;23;20002;-87
2023/06/29 20:16:48;;;;;;;4.38;3.90;;;;;;;;;;6098630;23;20013;-87
2023/06/29 20:19:14;;;;;;;4.07;3.65;;;;;;;;;;6100241;23;20029;-88
2023/06/29 20:21:40;;;;;;;4.75;3.60;;;;;;;;;;6099699;23;20009;-89
2023/06/29 20:24:06;;;;;;;5.30;3.72;;;;;;;;;;6099910;23;20006;-88
2023/06/29 20:26:32;;;;;;;4.22;3.83;;;;;;;;;;6099365;23;20334;-87
2023/06/29 20:28:58;;;;;;;4.78;3.75;;;;;;;;;;6099618;23;20061;-86
2023/06/29 20:31:23;;;;;;;4.10;3.70;;;;;;;;;;6099757;23;20442;-87
2023/06/29 20:33:49;;;;;;;3.90;3.50;;;;;;;;;;6099321;23;20081;-88
2023/06/29 20:36:14;;;;;;;6.00;3.55;;;;;;;;;;6099726;23;20054;-87
2023/06/29 20:38:40;;;;;;;4.80;3.67;;;;;;;;;;6099356;23;20427;-89
2023/06/29 20:41:05;;;;;;;4.85;3.50;;;;;;;;;;6073921;23;20435;-88
2023/06/29 20:43:33;;;;;;;3.90;3.50;;;;;;;;;;6099588;23;20040;-88
2023/06/29 20:45:59;;;;;;;4.43;3.28;;;;;;;;;;6099906;23;20006;-88
2023/06/29 20:48:24;;;;;;;4.30;3.95;;;;;;;;;;6099357;23;20082;-88
2023/06/29 20:50:51;;;;;;;4.55;3.45;;;;;;;;;;6099443;23;20003;-90
2023/06/29 20:53:17;;;;;;;4.35;3.35;;;;;;;;;;6099204;23;20002;-89
2023/06/29 20:55:42;;;;;;;5.32;3.47;;;;;;;;;;6099792;23;20081;-87
2023/06/29 20:58:09;;;;;;;4.70;3.65;;;;;;;;;;6099382;23;20013;-91
2023/06/29 21:00:35;;;;;;;4.85;3.88;;;;;;;;;;6073979;23;20007;-89
2023/06/29 21:03:01;;;;;;;5.20;3.97;;;;;;;;;;6073635;23;20079;-90
2023/06/29 21:05:26;;;;;;;3.70;3.40;;;;;;;;;;6099242;23;20010;-88
2023/06/29 21:07:52;;;;;;;4.00;3.60;;;;;;;;;;6099043;23;20007;-88
2023/06/29 21:10:17;;;;;;;4.13;3.72;;;;;;;;;;6099313;23;20007;-88
2023/06/29 21:12:43;;;;;;;3.90;3.60;;;;;;;;;;6098945;23;20097;-87
2023/06/29 21:15:09;;;;;;;4.53;3.60;;;;;;;;;;6099443;23;20006;-86
2023/06/29 21:17:34;;;;;;;3.75;3.38;;;;;;;;;;6074095;23;20018;-88
2023/06/29 21:20:00;;;;;;;5.75;3.55;;;;;;;;;;6099141;23;20030;-87
2023/06/29 21:22:26;;;;;;;4.03;3.15;;;;;;;;;;6099416;23;20331;-88
2023/06/29 21:24:51;;;;;;;3.70;3.40;;;;;;;;;;6099133;23;20452;-86
2023/06/29 21:27:17;;;;;;;4.25;3.63;;;;;;;;;;6098643;23;20041;-88
2023/06/29 21:29:45;;;;;;;3.75;3.45;;;;;;;;;;6098901;23;20010;-86
2023/06/29 21:32:11;;;;;;;4.60;4.20;;;;;;;;;;6099004;23;20034;-87
2023/06/29 21:34:40;;;;;;;4.28;3.88;;;;;;;;;;6099049;23;20007;-87
2023/06/29 21:37:06;;;;;;;4.35;3.83;;;;;;;;;;6098995;23;20006;-87
2023/06/29 21:39:32;;;;;;;4.78;3.60;;;;;;;;;;6098966;23;20026;-87
2023/06/29 21:41:57;;;;;;;6.22;3.88;;;;;;;;;;6098791;23;20003;-87
2023/06/29 21:44:23;;;;;;;4.18;3.55;;;;;;;;;;6098930;23;20083;-87
2023/06/29 21:46:49;;;;;;;4.35;4.00;;;;;;;;;;6099135;23;20029;-85
2023/06/29 21:49:16;;;;;;;6.03;3.88;;;;;;;;;;6099163;23;20081;-87
2023/06/29 21:51:42;;;;;;;3.97;3.60;;;;;;;;;;6098986;23;20074;-88
2023/06/29 21:54:09;;;;;;;4.25;3.80;;;;;;;;;;6098515;23;20037;-89
2023/06/29 21:56:35;;;;;;;4.40;4.00;;;;;;;;;;6098586;23;20007;-87
2023/06/29 21:59:00;;;;;;;3.70;3.40;;;;;;;;;;6099260;23;20434;-88
2023/06/29 22:01:27;;;;;;;4.40;4.00;;;;;;;;;;6099258;23;20010;-91
